Rain radar more information rain snow radar


Visit our other weather sites:

Template documentation
and downloads

And another site



Nearby METAR Reports

   
KTIW - Tacoma, Washington, USA
Distance from station: W 7 mi
Updated: Oct 17 2021 12:53 am
Mostly Cloudy  
Mostly Cloudy  
   Wind: SW 5.8 mph
Wind: SW 5.8 mph
Temperature: 55.4°F
Dew Point: 48.2°F
Humidity: 77%
Barometer: 29.79 inHg
Clouds: Mostly Cloudy
Visibility: 10 mi
Cloud details: Mostly Cloudy 1524 m
KTIW 170753Z AUTO 22005KT 10SM BKN050 13/09 A2979 RMK AO2 SLP087 T01280089 401830111
KTCM - Tacoma/Mc Chord, Washington, USA
Distance from station: S 9 mi
Updated: Oct 17 2021 12:58 am
Clear  
Clear  
   Wind: South 5.8 mph
Wind: South 5.8 mph
Temperature: 50°F
Wind Chill: 48.2°F
Dew Point: 46.4°F
Humidity: 88%
Barometer: 29.78 inHg
Clouds: Clear
Visibility: 10 mi
Cloud details: Clear m
KTCM 170758Z AUTO 18005KT 10SM CLR 10/08 A2978 RMK AO2 SLP088 T01020078 402030102 $
KSEA - Seattle/Metro, Washington, USA
Distance from station: NNE 15 mi
Updated: Oct 17 2021 12:53 am
Mostly Cloudy  
Mostly Cloudy  
   Wind: SSE 11.5 mph
Wind: SSE 11.5 mph
Temperature: 55.4°F
Dew Point: 46.4°F
Humidity: 72%
Barometer: 29.79 inHg
Clouds: Mostly Cloudy
Visibility: 10 mi
Cloud details: Few Clouds 2134 m,
Partly Cloudy 3658 m,
Mostly Cloudy 6096 m
KSEA 170753Z 15010KT 10SM FEW070 SCT120 BKN200 13/08 A2979 RMK AO2 SLP092 T01330083 401940117
KBFI - Seattle/Boeing, Washington, USA
Distance from station: NNE 21 mi
Updated: Oct 17 2021 12:53 am
Clear  
Clear  
   Wind: SE 6.9 mph
Wind: SE 6.9 mph
Temperature: 55.4°F
Dew Point: 48.2°F
Humidity: 77%
Barometer: 29.78 inHg
Clouds: Clear
Visibility: 10 mi
Cloud details: Clear m
KBFI 170753Z 13006KT 10SM CLR 13/09 A2978 RMK AO2 SLP086 T01280094 402000117
KOLM - Olympia, Washington, USA
Distance from station: SW 29 mi
Updated: Oct 17 2021 12:54 am
Few Clouds  
Few Clouds  
   Wind: South 8.1 mph
Wind: South 8.1 mph
Temperature: 53.6°F
Dew Point: 48.2°F
Humidity: 82%
Barometer: 29.78 inHg
Clouds: Few Clouds
Visibility: 10 mi
Cloud details: Few Clouds 1676 m
KOLM 170754Z AUTO 18007KT 10SM FEW055 12/09 A2978 RMK AO2 SLP086 T01220089 401940117
 

Script developed by  Saratoga-weather.org Adapted for the template by  Weerstation Leuven

You find our weather info also at:

Weather Underground

WeatherlinkIP

Citizen Weather Observer Program (CWOP)

Equipment we use:

Weather-station
Davis VP2

Weather-program
Meteobridge

Provider
MDD Hosting

Davis VP2

Meteobridge

MDD Hosting